createdAt,value
2023-05-19T00:01:48.660Z,4.13
2023-05-19T00:04:47.883Z,3.60
2023-05-19T00:07:46.693Z,5.00
2023-05-19T00:10:45.058Z,4.28
2023-05-19T00:13:43.003Z,4.20
2023-05-19T00:16:42.820Z,4.00
2023-05-19T00:19:40.729Z,3.72
2023-05-19T00:22:38.554Z,4.10
2023-05-19T00:25:36.319Z,4.20
2023-05-19T00:28:34.145Z,3.70
2023-05-19T00:31:33.394Z,4.55
2023-05-19T00:34:31.235Z,3.70
2023-05-19T00:37:29.111Z,3.70
2023-05-19T00:40:27.788Z,4.68
2023-05-19T00:43:25.779Z,4.28
2023-05-19T00:46:23.717Z,4.32
2023-05-19T00:49:21.847Z,4.38
2023-05-19T00:52:19.782Z,3.70
2023-05-19T00:55:17.818Z,3.92
2023-05-19T00:58:16.791Z,4.00
2023-05-19T01:01:17.628Z,3.90
2023-05-19T01:04:20.797Z,3.50
2023-05-19T01:07:19.320Z,4.03
2023-05-19T01:10:17.158Z,4.40
2023-05-19T01:13:15.336Z,4.35
2023-05-19T01:16:39.425Z,4.00
2023-05-19T01:19:56.826Z,4.10
2023-05-19T01:23:24.493Z,4.00
2023-05-19T01:26:42.469Z,3.63
2023-05-19T01:30:16.221Z,4.05
2023-05-19T01:33:15.822Z,4.20
2023-05-19T01:36:15.980Z,4.63
2023-05-19T01:39:14.748Z,4.35
2023-05-19T01:42:14.098Z,4.50
2023-05-19T01:45:12.814Z,4.68
2023-05-19T01:48:11.284Z,4.10
2023-05-19T01:51:09.190Z,5.45
2023-05-19T01:54:07.085Z,4.97
2023-05-19T01:57:23.785Z,6.10
2023-05-19T02:00:52.000Z,5.10
2023-05-19T02:04:14.041Z,4.95
2023-05-19T02:07:37.714Z,5.40
2023-05-19T02:10:41.668Z,6.30
2023-05-19T02:13:44.006Z,5.63
2023-05-19T02:16:44.952Z,5.18
2023-05-19T02:19:44.747Z,5.88
2023-05-19T02:22:43.034Z,6.32
2023-05-19T02:25:41.001Z,5.43
2023-05-19T02:28:38.881Z,5.88
2023-05-19T02:31:36.715Z,5.10
2023-05-19T02:34:34.614Z,7.90
2023-05-19T02:37:33.260Z,7.53
2023-05-19T02:40:31.395Z,6.43
2023-05-19T02:43:31.101Z,6.25
2023-05-19T02:46:28.891Z,8.77
2023-05-19T02:49:26.838Z,7.97
2023-05-19T02:52:24.591Z,7.95
2023-05-19T02:55:22.432Z,8.23
2023-05-19T02:58:20.904Z,7.45
2023-05-19T03:01:19.036Z,8.23
2023-05-19T03:04:16.990Z,6.50
2023-05-19T03:07:16.103Z,5.93
2023-05-19T03:10:13.819Z,8.32
2023-05-19T03:13:11.825Z,9.05
2023-05-19T03:16:09.685Z,8.10
2023-05-19T03:19:07.927Z,8.32
2023-05-19T03:22:05.961Z,9.38
2023-05-19T03:25:03.976Z,13.05
2023-05-19T03:28:02.180Z,12.70
2023-05-19T03:31:00.184Z,14.27
2023-05-19T03:33:58.382Z,12.95
2023-05-19T03:36:56.355Z,8.07
2023-05-19T03:39:54.174Z,12.93
2023-05-19T03:42:52.005Z,15.93
2023-05-19T03:45:49.826Z,13.63
2023-05-19T03:48:47.682Z,16.67
2023-05-19T03:51:45.519Z,9.50
2023-05-19T03:54:43.702Z,18.17
2023-05-19T03:57:43.807Z,17.70
2023-05-19T04:00:42.526Z,12.38
2023-05-19T04:03:40.393Z,14.98
2023-05-19T04:06:38.394Z,13.68
2023-05-19T04:09:36.486Z,15.52
2023-05-19T04:12:34.312Z,14.27
2023-05-19T04:15:32.111Z,8.25
2023-05-19T04:18:30.029Z,18.00
2023-05-19T04:21:28.197Z,12.90
2023-05-19T04:24:26.093Z,13.38
2023-05-19T04:27:24.160Z,16.15
2023-05-19T04:30:23.069Z,19.58
2023-05-19T04:33:20.761Z,18.50
2023-05-19T04:36:21.967Z,15.93
2023-05-19T04:39:19.826Z,14.95
2023-05-19T04:42:19.769Z,11.40
2023-05-19T04:45:17.565Z,14.55
2023-05-19T04:48:15.722Z,12.23
2023-05-19T04:51:14.655Z,10.95
2023-05-19T04:54:12.543Z,9.40
2023-05-19T04:57:13.451Z,11.57
2023-05-19T05:00:14.998Z,16.63
2023-05-19T05:03:15.226Z,16.20
2023-05-19T05:06:13.220Z,13.88
2023-05-19T05:09:10.946Z,11.00
2023-05-19T05:12:09.640Z,12.80
2023-05-19T05:15:08.164Z,14.93
2023-05-19T05:18:06.321Z,9.43
2023-05-19T05:21:04.529Z,7.72
2023-05-19T05:24:02.617Z,12.82
2023-05-19T05:27:00.640Z,10.07
2023-05-19T05:29:59.272Z,8.75
2023-05-19T05:32:57.674Z,11.45
2023-05-19T05:35:55.593Z,11.13
2023-05-19T05:38:53.373Z,22.48
2023-05-19T05:41:51.196Z,12.00
2023-05-19T05:44:48.932Z,10.57
2023-05-19T05:47:47.566Z,19.65
2023-05-19T05:50:46.558Z,25.70
2023-05-19T05:53:50.964Z,24.92
2023-05-19T05:56:49.400Z,28.70
2023-05-19T05:59:47.918Z,25.15
2023-05-19T06:02:47.848Z,20.10
2023-05-19T06:05:45.827Z,26.45
2023-05-19T06:08:43.647Z,17.75
2023-05-19T06:11:41.667Z,27.92
2023-05-19T06:14:39.384Z,24.40
2023-05-19T06:17:37.305Z,25.40
2023-05-19T06:20:35.512Z,21.65
2023-05-19T06:23:33.497Z,24.73
2023-05-19T06:26:31.249Z,20.33
2023-05-19T06:29:29.047Z,24.65
2023-05-19T06:32:26.949Z,25.15
2023-05-19T06:35:24.864Z,26.30
2023-05-19T06:38:22.792Z,28.70
2023-05-19T06:41:22.383Z,27.35
2023-05-19T06:44:23.075Z,29.05
2023-05-19T06:47:21.296Z,26.70
2023-05-19T06:50:19.274Z,24.02
2023-05-19T06:53:20.004Z,23.08
2023-05-19T06:56:19.471Z,21.85
2023-05-19T06:59:17.555Z,19.52
2023-05-19T07:02:15.589Z,18.20
2023-05-19T07:05:13.687Z,19.52
2023-05-19T07:08:11.679Z,16.90
2023-05-19T07:11:09.772Z,16.33
2023-05-19T07:14:07.735Z,15.57
2023-05-19T07:17:06.067Z,13.18
2023-05-19T07:20:07.334Z,14.80
2023-05-19T07:23:06.038Z,11.50
2023-05-19T07:26:04.642Z,13.60
2023-05-19T07:29:02.606Z,11.43
2023-05-19T07:32:00.754Z,10.70
2023-05-19T07:34:58.989Z,8.68
2023-05-19T07:37:56.710Z,8.77
2023-05-19T07:40:54.619Z,9.38
2023-05-19T07:43:52.501Z,14.65
2023-05-19T07:46:50.391Z,18.15
2023-05-19T07:49:50.307Z,15.15
2023-05-19T07:52:49.664Z,16.13
2023-05-19T07:55:47.625Z,19.38
2023-05-19T07:58:45.716Z,23.83
2023-05-19T08:01:43.711Z,23.65
2023-05-19T08:04:41.613Z,22.40
2023-05-19T08:07:39.545Z,22.23
2023-05-19T08:10:37.371Z,23.88
2023-05-19T08:13:35.351Z,22.55
2023-05-19T08:16:33.412Z,24.90
2023-05-19T08:19:31.243Z,24.75
2023-05-19T08:22:29.035Z,23.10
2023-05-19T08:25:26.791Z,21.95
2023-05-19T08:28:24.651Z,22.25
2023-05-19T08:31:23.017Z,23.15
2023-05-19T08:34:21.310Z,22.63
2023-05-19T08:37:19.012Z,21.52
2023-05-19T08:40:19.083Z,25.50
2023-05-19T08:43:16.877Z,22.38
2023-05-19T08:46:17.032Z,22.38
2023-05-19T08:49:17.420Z,23.23
2023-05-19T08:52:36.690Z,22.42
2023-05-19T08:55:42.778Z,17.23
2023-05-19T08:58:44.390Z,20.08
2023-05-19T09:01:46.521Z,21.30
2023-05-19T09:04:46.550Z,20.95
2023-05-19T09:07:45.194Z,16.35
2023-05-19T09:10:43.003Z,14.57
2023-05-19T09:13:40.977Z,15.63
2023-05-19T09:16:39.760Z,15.48
2023-05-19T09:19:43.093Z,17.75
2023-05-19T09:22:43.720Z,15.88
2023-05-19T09:25:49.923Z,12.82
2023-05-19T09:28:48.371Z,16.05
2023-05-19T09:31:54.977Z,11.50
2023-05-19T09:34:54.767Z,10.32
2023-05-19T09:37:53.351Z,8.57
2023-05-19T09:40:52.257Z,10.75
2023-05-19T09:43:57.818Z,10.88
2023-05-19T09:46:56.079Z,9.10
2023-05-19T09:49:54.669Z,9.48
2023-05-19T09:52:53.637Z,9.05
2023-05-19T09:55:55.972Z,9.90
2023-05-19T09:58:54.234Z,9.90
2023-05-19T10:01:55.152Z,9.65
2023-05-19T10:04:55.515Z,9.07
2023-05-19T10:07:55.361Z,9.30
2023-05-19T10:10:53.442Z,10.18
2023-05-19T10:13:52.689Z,9.15
2023-05-19T10:16:53.669Z,6.90
2023-05-19T10:19:53.209Z,7.95
2023-05-19T10:22:51.000Z,8.30
2023-05-19T10:25:49.862Z,7.25
2023-05-19T10:28:48.532Z,7.10
2023-05-19T10:31:48.537Z,6.00
2023-05-19T10:35:16.985Z,8.27
2023-05-19T10:38:33.836Z,8.55
2023-05-19T10:41:47.037Z,7.55
2023-05-19T10:45:13.453Z,6.95
2023-05-19T10:48:14.978Z,11.20
2023-05-19T10:51:12.736Z,9.30
2023-05-19T10:54:14.399Z,8.98
2023-05-19T10:57:16.878Z,9.00
2023-05-19T11:00:30.816Z,8.48
2023-05-19T11:06:32.526Z,8.30
2023-05-19T11:09:39.997Z,7.30
2023-05-19T11:12:46.052Z,7.35
2023-05-19T11:15:45.934Z,9.18
2023-05-19T11:18:48.332Z,16.17
2023-05-19T11:21:52.969Z,11.50
2023-05-19T11:24:53.203Z,11.13
2023-05-19T11:27:53.227Z,9.40
2023-05-19T11:30:52.586Z,8.85
2023-05-19T11:33:51.018Z,8.43
2023-05-19T11:36:49.414Z,8.70
2023-05-19T11:39:47.846Z,8.80
2023-05-19T11:42:45.843Z,9.15
2023-05-19T11:45:43.609Z,8.02
2023-05-19T11:48:41.726Z,8.85
2023-05-19T11:51:40.155Z,9.13
2023-05-19T11:54:38.289Z,9.35
2023-05-19T11:57:36.740Z,8.45
2023-05-19T12:00:40.528Z,9.05
2023-05-19T12:03:38.997Z,10.70
2023-05-19T12:06:38.118Z,11.13
2023-05-19T12:09:36.189Z,14.02
2023-05-19T12:12:36.684Z,9.63
2023-05-19T12:15:34.711Z,9.70
2023-05-19T12:18:38.061Z,8.02
2023-05-19T12:21:37.215Z,8.68
2023-05-19T12:24:37.136Z,9.75
2023-05-19T12:27:38.776Z,11.52
2023-05-19T12:30:37.926Z,22.10
2023-05-19T12:33:36.404Z,9.13
2023-05-19T12:36:34.344Z,13.77
2023-05-19T12:39:32.888Z,9.30
2023-05-19T12:42:31.906Z,8.43
2023-05-19T12:45:34.256Z,8.45
2023-05-19T12:48:32.291Z,8.75
2023-05-19T12:51:30.162Z,8.85
2023-05-19T12:54:28.250Z,8.85
2023-05-19T12:57:27.133Z,8.35
2023-05-19T13:00:29.388Z,9.55
2023-05-19T13:03:27.401Z,9.07
2023-05-19T13:06:25.285Z,9.18
2023-05-19T13:09:23.261Z,9.63
2023-05-19T13:12:21.556Z,8.70
2023-05-19T13:15:19.510Z,7.50
2023-05-19T13:18:19.134Z,8.20
2023-05-19T13:21:17.116Z,8.68
2023-05-19T13:24:15.542Z,10.30
2023-05-19T13:27:13.807Z,8.55
2023-05-19T13:30:12.661Z,8.10
2023-05-19T13:33:10.716Z,8.43
2023-05-19T13:36:08.902Z,9.43
2023-05-19T13:39:07.168Z,9.43
2023-05-19T13:42:05.645Z,9.10
2023-05-19T13:45:04.149Z,9.02
2023-05-19T13:48:03.317Z,9.10
2023-05-19T13:51:01.785Z,8.60
2023-05-19T13:53:59.871Z,8.43
2023-05-19T13:56:58.036Z,8.38
2023-05-19T14:00:03.341Z,8.63
2023-05-19T14:03:02.686Z,8.70
2023-05-19T14:06:00.774Z,9.27
2023-05-19T14:08:59.232Z,8.75
2023-05-19T14:11:57.515Z,10.52
2023-05-19T14:14:55.545Z,8.45
2023-05-19T14:17:54.902Z,7.32
2023-05-19T14:20:52.959Z,6.45
2023-05-19T14:23:51.154Z,7.03
2023-05-19T14:26:50.132Z,6.07
2023-05-19T14:29:49.802Z,6.25
2023-05-19T14:32:48.258Z,6.45
2023-05-19T14:35:48.238Z,7.32
2023-05-19T14:38:46.447Z,7.28
2023-05-19T14:41:44.704Z,7.35
2023-05-19T14:44:42.707Z,8.20
2023-05-19T14:47:41.183Z,7.80
2023-05-19T14:50:40.750Z,8.20
2023-05-19T14:53:38.892Z,9.65
2023-05-19T14:56:36.895Z,9.15
2023-05-19T14:59:38.604Z,9.18
2023-05-19T15:02:38.076Z,9.43
2023-05-19T15:05:37.650Z,10.02
2023-05-19T15:08:35.654Z,9.88
2023-05-19T15:11:33.992Z,10.32
2023-05-19T15:14:32.263Z,10.50
2023-05-19T15:17:30.472Z,11.05
2023-05-19T15:20:29.611Z,11.88
2023-05-19T15:23:27.993Z,10.52
2023-05-19T15:26:29.082Z,10.82
2023-05-19T15:29:27.803Z,13.27
2023-05-19T15:32:25.876Z,13.77
2023-05-19T15:35:24.252Z,12.45
2023-05-19T15:38:22.390Z,12.75
2023-05-19T15:41:20.651Z,12.60
2023-05-19T15:44:19.189Z,10.98
2023-05-19T15:47:17.394Z,11.30
2023-05-19T15:50:16.912Z,13.20
2023-05-19T15:53:15.301Z,14.82
2023-05-19T15:56:14.039Z,15.20
2023-05-19T15:59:12.109Z,15.05
2023-05-19T16:02:10.190Z,13.88
2023-05-19T16:05:08.638Z,13.55
2023-05-19T16:08:08.669Z,12.38
2023-05-19T16:11:07.110Z,11.52
2023-05-19T16:14:05.226Z,8.27
2023-05-19T16:17:04.709Z,5.93
2023-05-19T16:20:02.801Z,5.43
2023-05-19T16:23:00.905Z,5.00
2023-05-19T16:25:58.982Z,4.40
2023-05-19T16:28:57.363Z,4.05
2023-05-19T16:31:55.429Z,4.35
2023-05-19T16:34:53.613Z,3.75
2023-05-19T16:37:51.928Z,3.50
2023-05-19T16:40:50.050Z,4.32
2023-05-19T16:43:48.250Z,3.42
2023-05-19T16:46:46.373Z,3.25
2023-05-19T16:49:45.345Z,3.20
2023-05-19T16:52:43.968Z,2.97
2023-05-19T16:55:41.923Z,2.92
2023-05-19T16:58:40.021Z,2.72
2023-05-19T17:01:38.258Z,2.85
2023-05-19T17:04:36.388Z,3.42
2023-05-19T17:07:34.354Z,3.25
2023-05-19T17:10:32.646Z,3.42
2023-05-19T17:13:34.159Z,2.95
2023-05-19T17:16:32.269Z,2.90
2023-05-19T17:19:30.308Z,3.30
2023-05-19T17:22:30.218Z,3.33
2023-05-19T17:25:28.365Z,3.10
2023-05-19T17:28:26.518Z,2.83
2023-05-19T17:31:24.498Z,2.40
2023-05-19T17:34:22.660Z,3.10
2023-05-19T17:37:24.006Z,2.17
2023-05-19T17:40:22.328Z,2.38
2023-05-19T17:43:20.278Z,2.88
2023-05-19T17:46:18.543Z,3.08
2023-05-19T17:49:16.585Z,2.97
2023-05-19T17:52:16.739Z,2.97
2023-05-19T17:55:15.404Z,3.20
2023-05-19T17:58:13.748Z,3.60
2023-05-19T18:01:11.860Z,4.32
2023-05-19T18:04:10.495Z,4.90
2023-05-19T18:07:09.912Z,4.93
2023-05-19T18:10:09.110Z,6.18
2023-05-19T18:13:07.807Z,5.97
2023-05-19T18:16:06.097Z,5.95
2023-05-19T18:19:05.008Z,5.28
2023-05-19T18:22:03.182Z,5.65
2023-05-19T18:25:01.187Z,6.18
2023-05-19T18:27:59.340Z,5.97
2023-05-19T18:31:01.940Z,5.95
2023-05-19T18:34:00.245Z,5.35
2023-05-19T18:36:58.288Z,5.05
2023-05-19T18:39:56.560Z,5.13
2023-05-19T18:42:54.522Z,3.90
2023-05-19T18:45:52.930Z,4.07
2023-05-19T18:48:51.673Z,4.25
2023-05-19T18:51:50.415Z,3.92
2023-05-19T18:54:48.558Z,3.53
2023-05-19T18:57:47.510Z,3.40
2023-05-19T19:00:45.689Z,3.30
2023-05-19T19:03:45.579Z,3.35
2023-05-19T19:06:43.956Z,3.25
2023-05-19T19:09:44.276Z,3.20
2023-05-19T19:12:42.710Z,3.50
2023-05-19T19:15:40.869Z,3.13
2023-05-19T19:18:39.110Z,3.00
2023-05-19T19:21:37.246Z,3.00
2023-05-19T19:24:36.401Z,3.58
2023-05-19T19:27:36.231Z,3.15
2023-05-19T19:30:34.523Z,3.10
2023-05-19T19:33:32.892Z,2.78
2023-05-19T19:36:30.939Z,3.35
2023-05-19T19:39:29.029Z,2.90
2023-05-19T19:42:27.045Z,2.70
2023-05-19T19:45:25.257Z,3.03
2023-05-19T19:48:23.200Z,3.25
2023-05-19T19:51:21.302Z,3.05
2023-05-19T19:54:19.617Z,3.55
2023-05-19T19:57:18.040Z,3.90
2023-05-19T20:00:16.694Z,4.40
2023-05-19T20:03:14.833Z,4.93
2023-05-19T20:06:15.680Z,4.95
2023-05-19T20:09:13.837Z,5.13
2023-05-19T20:12:11.792Z,5.15
2023-05-19T20:15:10.367Z,5.70
2023-05-19T20:18:08.395Z,5.57
2023-05-19T20:21:06.560Z,5.20
2023-05-19T20:24:04.964Z,5.05
2023-05-19T20:27:03.146Z,4.53
2023-05-19T20:30:01.297Z,4.45
2023-05-19T20:32:59.486Z,4.55
2023-05-19T20:35:57.415Z,4.18
2023-05-19T20:38:55.530Z,4.20
2023-05-19T20:41:53.524Z,4.13
2023-05-19T20:44:52.020Z,3.63
2023-05-19T20:47:50.036Z,3.90
2023-05-19T20:50:48.265Z,3.33
2023-05-19T20:53:46.450Z,3.28
2023-05-19T20:56:44.741Z,3.40
2023-05-19T20:59:42.808Z,3.40
2023-05-19T21:02:41.386Z,3.00
2023-05-19T21:05:39.792Z,3.00
2023-05-19T21:08:38.121Z,3.00
2023-05-19T21:11:36.088Z,3.00
2023-05-19T21:14:34.285Z,3.20
2023-05-19T21:17:32.571Z,2.72
2023-05-19T21:20:30.849Z,3.20
2023-05-19T21:23:28.966Z,3.03
2023-05-19T21:26:27.469Z,3.20
2023-05-19T21:29:26.676Z,3.38
2023-05-19T21:32:25.012Z,3.05
2023-05-19T21:35:23.064Z,3.17
2023-05-19T21:38:24.223Z,3.00
2023-05-19T21:41:22.908Z,3.42
2023-05-19T21:44:22.522Z,3.33
2023-05-19T21:47:20.534Z,3.78
2023-05-19T21:50:18.740Z,4.32
2023-05-19T21:53:16.881Z,3.42
2023-05-19T21:56:15.001Z,3.28
2023-05-19T21:59:12.981Z,3.78
2023-05-19T22:02:11.245Z,3.35
2023-05-19T22:05:09.857Z,3.30
2023-05-19T22:08:08.278Z,2.95
2023-05-19T22:11:06.399Z,3.40
2023-05-19T22:14:04.651Z,3.58
2023-05-19T22:17:02.600Z,3.72
2023-05-19T22:20:00.734Z,3.72
2023-05-19T22:22:59.952Z,4.22
2023-05-19T22:25:58.007Z,4.57
2023-05-19T22:28:57.149Z,3.90
2023-05-19T22:31:55.197Z,4.20
2023-05-19T22:34:53.350Z,4.53
2023-05-19T22:37:51.654Z,4.13
2023-05-19T22:40:50.699Z,4.75
2023-05-19T22:43:48.633Z,4.38
2023-05-19T22:46:46.439Z,4.10
2023-05-19T22:49:44.523Z,4.40
2023-05-19T22:52:42.462Z,4.10
2023-05-19T22:55:40.266Z,4.03
2023-05-19T22:58:38.060Z,3.58
2023-05-19T23:01:35.997Z,4.32
2023-05-19T23:04:34.629Z,4.63
2023-05-19T23:07:32.445Z,4.38
2023-05-19T23:10:30.148Z,4.28
2023-05-19T23:13:27.957Z,4.20
2023-05-19T23:16:25.871Z,4.47
2023-05-19T23:19:23.858Z,4.38
2023-05-19T23:22:21.556Z,4.20
2023-05-19T23:25:19.476Z,4.68
2023-05-19T23:28:17.643Z,4.13
2023-05-19T23:31:15.668Z,4.63
2023-05-19T23:34:13.435Z,4.53
2023-05-19T23:37:12.220Z,4.63
2023-05-19T23:40:10.670Z,4.25
2023-05-19T23:43:08.628Z,4.72
2023-05-19T23:46:06.446Z,4.70
2023-05-19T23:49:04.279Z,4.45
2023-05-19T23:52:01.960Z,4.13
2023-05-19T23:54:59.821Z,4.82
2023-05-19T23:57:57.571Z,4.88
